Time;durP1;ratioP1;P1;durP2;ratioP2;P2;SDS_P1;SDS_P2;PMS_P1;PMS_P2;Temp;Humidity;BMP_temperature;BMP_pressure;BME280_temperature;BME280_humidity;BME280_pressure;Samples;Min_cycle;Max_cycle;Signal;HPM_P1;HPM_P2
2021/12/23 00:00:58;;;;;;;92.82;35.40;;;;;;;-3.19;70.00;99525.03;5166067;28;20068;-70
2021/12/23 00:03:49;;;;;;;88.70;34.15;;;;;;;-2.92;69.59;99521.59;5172876;28;20570;-68
2021/12/23 00:06:40;;;;;;;97.90;34.60;;;;;;;-3.34;71.08;99511.63;5184017;28;20037;-68
2021/12/23 00:10:02;;;;;;;87.45;34.25;;;;;;;-3.07;69.89;99514.31;5174509;28;20053;-69
2021/12/23 00:12:45;;;;;;;89.05;33.67;;;;;;;-2.68;68.04;99520.03;5186426;28;20044;-68
2021/12/23 00:24:28;;;;;;;92.82;33.75;;;;;;;-2.06;66.31;99497.22;5183931;28;20135;-69
2021/12/23 00:27:18;;;;;;;80.55;32.38;;;;;;;-2.11;65.82;99486.16;5174442;28;20044;-70
2021/12/23 00:30:09;;;;;;;78.63;31.95;;;;;;;-2.40;66.27;99490.56;5175630;28;20052;-69
2021/12/23 00:32:59;;;;;;;83.97;30.98;;;;;;;-2.45;66.47;99485.53;5187713;28;20627;-69
2021/12/23 00:35:50;;;;;;;76.65;31.48;;;;;;;-2.55;66.35;99483.28;5178501;28;20538;-68
2021/12/23 00:38:51;;;;;;;74.70;30.42;;;;;;;-2.62;65.99;99472.22;5175678;28;20061;-69
2021/12/23 00:41:43;;;;;;;86.47;32.10;;;;;;;-3.00;67.22;99470.88;5165299;28;20069;-69
2021/12/23 00:44:35;;;;;;;83.22;32.47;;;;;;;-2.64;66.38;99471.47;5168801;28;20073;-69
2021/12/23 00:47:25;;;;;;;84.38;32.70;;;;;;;-2.54;66.18;99478.03;5161501;28;20079;-68
2021/12/23 00:50:16;;;;;;;82.57;32.25;;;;;;;-2.77;66.91;99472.75;5162575;28;20052;-68
2021/12/23 00:53:08;;;;;;;83.93;31.85;;;;;;;-2.96;67.74;99460.34;5176081;28;20041;-68
2021/12/23 00:55:58;;;;;;;83.20;32.88;;;;;;;-2.85;67.60;99467.78;5169656;28;20058;-68
2021/12/23 00:58:47;;;;;;;84.68;33.03;;;;;;;-2.74;66.61;99467.47;5176897;28;20115;-68
2021/12/23 01:01:37;;;;;;;90.35;33.75;;;;;;;-3.22;68.28;99473.25;5181281;28;20080;-69
2021/12/23 01:04:28;;;;;;;87.75;32.75;;;;;;;-3.12;67.85;99465.13;5171018;28;20046;-68
2021/12/23 01:07:18;;;;;;;86.68;32.70;;;;;;;-3.14;68.33;99451.38;5177004;28;20050;-68
2021/12/23 01:10:10;;;;;;;88.78;33.17;;;;;;;-2.91;67.81;99457.63;5176582;28;20092;-68
2021/12/23 01:13:03;;;;;;;92.45;33.90;;;;;;;-2.78;67.62;99438.16;5166797;28;20057;-68
2021/12/23 01:16:02;;;;;;;100.07;35.28;;;;;;;-2.73;68.29;99440.59;5179386;28;20057;-68
2021/12/23 01:18:55;;;;;;;91.35;35.50;;;;;;;-2.81;69.30;99443.44;5185262;28;20049;-68
2021/12/23 01:21:45;;;;;;;91.75;34.70;;;;;;;-3.40;71.08;99394.28;5185290;28;20057;-69
2021/12/23 01:24:36;;;;;;;97.38;34.50;;;;;;;-3.11;71.05;99435.72;5180988;28;20421;-69
2021/12/23 01:27:26;;;;;;;94.45;33.00;;;;;;;-3.11;70.98;99424.50;5170020;28;20145;-68
2021/12/23 01:30:17;;;;;;;92.78;32.50;;;;;;;-3.08;70.71;99434.75;5179458;28;20085;-69
2021/12/23 01:33:09;;;;;;;92.65;33.85;;;;;;;-3.33;71.32;99421.72;5168690;28;20121;-68
2021/12/23 01:35:59;;;;;;;89.40;32.38;;;;;;;-3.41;72.01;99429.75;5165126;28;20053;-69
2021/12/23 01:38:49;;;;;;;90.68;34.30;;;;;;;-3.21;70.93;99415.28;5176042;28;20050;-68
2021/12/23 01:41:38;;;;;;;93.07;33.90;;;;;;;-3.20;71.21;99424.78;5176479;28;20042;-68
2021/12/23 01:44:28;;;;;;;91.15;34.25;;;;;;;-2.93;70.47;99429.09;5162056;28;20049;-69
2021/12/23 01:47:19;;;;;;;91.47;34.28;;;;;;;-3.01;70.59;99419.84;5181030;28;20053;-68
2021/12/23 01:50:11;;;;;;;89.88;33.15;;;;;;;-2.77;69.68;99402.66;5175369;28;20519;-68
2021/12/23 01:53:01;;;;;;;91.53;35.10;;;;;;;-2.94;70.58;99417.03;5175300;28;20410;-69
2021/12/23 01:55:51;;;;;;;87.75;33.78;;;;;;;-2.38;68.97;99419.50;5174219;28;20127;-69
2021/12/23 01:58:42;;;;;;;87.03;32.95;;;;;;;-2.00;67.00;99401.72;5177551;28;20663;-69
2021/12/23 02:01:31;;;;;;;82.25;31.60;;;;;;;-2.14;67.28;99402.22;5168942;28;20038;-68
2021/12/23 02:04:22;;;;;;;86.47;32.53;;;;;;;-1.56;65.76;99406.19;5182074;28;20046;-68
2021/12/23 02:07:13;;;;;;;85.28;32.22;;;;;;;-1.80;65.92;99394.94;5173376;28;20046;-69
2021/12/23 02:10:05;;;;;;;90.38;32.53;;;;;;;-1.84;66.18;99401.16;5160982;28;20127;-69
2021/12/23 02:12:56;;;;;;;88.70;31.67;;;;;;;-1.75;65.42;99403.44;5173395;28;20040;-69
2021/12/23 02:15:46;;;;;;;85.13;33.33;;;;;;;-1.72;66.13;99400.72;5180396;28;20045;-69
2021/12/23 02:18:36;;;;;;;81.18;31.50;;;;;;;-1.65;65.98;99376.19;5178415;28;20125;-68
2021/12/23 02:21:26;;;;;;;79.00;31.73;;;;;;;-2.10;66.01;99371.78;5181562;28;20064;-68
2021/12/23 02:24:17;;;;;;;85.03;32.55;;;;;;;-2.34;67.95;99370.91;5175441;28;20057;-68
2021/12/23 02:27:10;;;;;;;82.47;30.90;;;;;;;-2.16;66.96;99374.59;5175187;28;20051;-69
2021/12/23 02:30:05;;;;;;;83.45;32.58;;;;;;;-2.04;66.70;99368.13;5172334;28;20049;-70
2021/12/23 02:32:56;;;;;;;81.05;32.40;;;;;;;-1.84;66.42;99359.59;5180366;28;20039;-68
2021/12/23 02:35:46;;;;;;;81.45;31.17;;;;;;;-1.66;65.48;99361.47;5183243;28;20064;-68
2021/12/23 02:38:36;;;;;;;80.30;30.77;;;;;;;-1.87;65.56;99362.28;5161474;28;20419;-70
2021/12/23 02:41:26;;;;;;;76.30;29.83;;;;;;;-1.83;66.31;99356.06;5180627;28;20402;-69
2021/12/23 02:44:18;;;;;;;77.93;29.00;;;;;;;-2.27;66.20;99359.38;5175110;28;20050;-68
2021/12/23 02:47:08;;;;;;;80.43;31.00;;;;;;;-2.37;67.19;99369.25;5172365;28;20120;-68
2021/12/23 02:49:58;;;;;;;76.28;30.05;;;;;;;-2.31;66.56;99363.00;5169666;28;20057;-69
2021/12/23 02:52:47;;;;;;;77.38;30.30;;;;;;;-1.72;65.08;99352.19;5172334;28;20504;-69
2021/12/23 02:55:37;;;;;;;78.40;30.73;;;;;;;-1.85;64.82;99327.56;5165727;28;20489;-68
2021/12/23 02:58:28;;;;;;;75.05;29.70;;;;;;;-1.35;64.55;99349.91;5173281;28;20061;-68
2021/12/23 03:01:21;;;;;;;73.80;29.05;;;;;;;-1.43;63.77;99345.81;5166272;28;20050;-68
2021/12/23 03:04:11;;;;;;;;;;;;;;;-1.39;63.97;99340.50;5176855;28;20527;-68
2021/12/23 03:07:01;;;;;;;73.63;28.25;;;;;;;-1.54;64.07;99300.38;5174183;28;19945;-69
2021/12/23 03:09:52;;;;;;;79.90;28.88;;;;;;;-1.30;64.32;99324.53;5178458;28;20052;-68
2021/12/23 03:12:42;;;;;;;71.93;30.00;;;;;;;-1.44;64.36;99319.91;5171359;28;20631;-69
2021/12/23 03:15:32;;;;;;;78.70;29.42;;;;;;;-1.40;64.36;99320.63;5161502;28;20559;-69
2021/12/23 03:18:22;;;;;;;82.28;31.08;;;;;;;-1.29;63.92;99306.28;5175739;28;20076;-69
2021/12/23 03:21:12;;;;;;;73.78;29.70;;;;;;;-1.21;63.63;99304.22;5167616;28;20579;-68
2021/12/23 03:24:03;;;;;;;73.53;29.40;;;;;;;-1.34;63.67;99297.81;5176656;28;20045;-69
2021/12/23 03:26:52;;;;;;;75.10;29.65;;;;;;;-1.29;64.06;99305.41;5174484;28;20038;-68
2021/12/23 03:29:43;;;;;;;78.07;28.10;;;;;;;-1.29;63.28;99302.81;5176565;28;20524;-69
2021/12/23 03:32:33;;;;;;;80.38;30.48;;;;;;;-1.77;64.24;99307.28;5179452;28;20046;-68
2021/12/23 03:35:23;;;;;;;68.72;28.15;;;;;;;-1.86;65.47;99286.00;5169341;28;20049;-68
2021/12/23 03:38:15;;;;;;;70.03;27.92;;;;;;;-2.29;66.57;99279.81;5175853;28;20132;-69
2021/12/23 03:41:05;;;;;;;72.97;28.15;;;;;;;-2.36;66.71;99279.19;5170275;28;20585;-68
2021/12/23 03:43:55;;;;;;;72.75;28.13;;;;;;;-2.15;66.38;99288.81;5168740;28;20089;-68
2021/12/23 03:46:45;;;;;;;74.35;28.80;;;;;;;-2.22;65.77;99263.09;5170282;28;20057;-68
2021/12/23 03:49:35;;;;;;;72.32;27.15;;;;;;;-2.02;65.28;99275.34;5144763;28;20068;-68
2021/12/23 03:52:26;;;;;;;73.10;30.33;;;;;;;-2.43;66.04;99244.81;5176723;28;20138;-69
2021/12/23 03:55:17;;;;;;;70.60;27.20;;;;;;;-2.51;66.97;99259.84;5175152;28;20080;-68
2021/12/23 03:58:07;;;;;;;67.32;27.80;;;;;;;-2.97;68.59;99251.09;5172132;28;20061;-69
2021/12/23 04:00:58;;;;;;;72.80;28.77;;;;;;;-2.74;67.98;99245.09;5168073;28;20042;-68
2021/12/23 04:03:51;;;;;;;67.97;26.80;;;;;;;-2.67;67.97;99253.50;5174668;28;20741;-69
2021/12/23 04:06:41;;;;;;;74.40;28.23;;;;;;;-2.95;68.75;99245.84;5175798;28;20042;-69
2021/12/23 04:09:31;;;;;;;68.50;27.60;;;;;;;-3.00;68.76;99261.56;5170246;28;20050;-69
2021/12/23 04:12:22;;;;;;;70.32;27.27;;;;;;;-2.82;68.18;99254.88;5171783;28;20531;-69
2021/12/23 04:15:12;;;;;;;69.28;26.20;;;;;;;-2.44;66.52;99218.94;5198197;23;20057;-65
2021/12/23 04:18:03;;;;;;;73.82;27.85;;;;;;;-2.14;66.64;99254.13;5198195;28;20127;-66
2021/12/23 04:20:54;;;;;;;69.20;26.83;;;;;;;-1.72;64.33;99256.00;5184035;28;20049;-64
2021/12/23 04:23:44;;;;;;;74.68;28.58;;;;;;;-1.74;64.88;99249.16;5184672;28;20072;-64
2021/12/23 04:26:36;;;;;;;71.65;28.10;;;;;;;-1.27;64.14;99246.38;5179164;28;20044;-65
2021/12/23 04:29:26;;;;;;;63.55;26.25;;;;;;;-1.29;64.10;99253.38;5180730;28;20049;-64
2021/12/23 04:32:16;;;;;;;65.85;27.33;;;;;;;-1.10;62.70;99235.25;5174180;28;20073;-63
2021/12/23 04:35:07;;;;;;;72.47;27.27;;;;;;;-1.26;63.50;99222.03;5177622;28;20096;-64
2021/12/23 04:37:57;;;;;;;69.35;27.30;;;;;;;-1.88;65.54;99222.88;5159909;28;20137;-64
2021/12/23 04:40:47;;;;;;;69.60;26.73;;;;;;;-1.97;66.00;99230.09;5180084;28;21068;-65
2021/12/23 04:43:38;;;;;;;67.97;26.88;;;;;;;-1.98;65.26;99212.81;5184509;28;20045;-65
2021/12/23 04:46:28;;;;;;;62.10;25.05;;;;;;;-1.47;64.54;99229.00;5183970;28;20053;-64
2021/12/23 04:49:22;;;;;;;69.50;27.45;;;;;;;-1.39;64.65;99228.66;5181634;28;20045;-65
2021/12/23 04:52:12;;;;;;;68.47;27.02;;;;;;;-1.12;63.58;99217.13;5178388;28;20061;-66
2021/12/23 04:55:03;;;;;;;72.70;28.20;;;;;;;-1.22;63.54;99200.22;5184650;28;20057;-64
2021/12/23 04:57:53;;;;;;;68.68;28.25;;;;;;;-0.96;63.40;99204.28;5181772;28;20069;-63
2021/12/23 05:00:47;;;;;;;69.60;27.00;;;;;;;-1.02;62.47;99195.00;5169716;28;20153;-66
2021/12/23 05:03:38;;;;;;;68.80;26.92;;;;;;;-1.04;62.14;99189.00;5182600;28;20127;-64
2021/12/23 05:06:28;;;;;;;74.25;27.52;;;;;;;-0.91;63.24;99197.13;5164362;28;20205;-66
2021/12/23 05:09:18;;;;;;;72.20;27.40;;;;;;;-1.33;63.92;99184.19;5185365;28;20053;-66
2021/12/23 05:12:09;;;;;;;66.97;26.65;;;;;;;-2.02;65.80;99177.47;5180636;28;20597;-64
2021/12/23 05:14:59;;;;;;;65.82;26.45;;;;;;;-1.66;64.95;99206.34;5184356;28;20471;-66
2021/12/23 05:17:49;;;;;;;71.57;28.48;;;;;;;-1.40;64.95;99193.16;5180113;28;20188;-63
2021/12/23 05:20:39;;;;;;;67.65;26.98;;;;;;;-1.08;62.68;99210.88;5181901;28;20046;-63
2021/12/23 05:23:29;;;;;;;66.78;27.05;;;;;;;-1.36;63.11;99200.78;5171765;28;20046;-64
2021/12/23 05:26:19;;;;;;;68.57;27.55;;;;;;;-1.22;63.29;99208.03;5180423;28;20049;-64
2021/12/23 05:29:11;;;;;;;70.50;27.20;;;;;;;-1.00;61.85;99206.16;5167975;28;20504;-66
2021/12/23 05:32:02;;;;;;;67.70;27.02;;;;;;;-1.32;63.29;99194.56;5178230;28;20176;-66
2021/12/23 05:34:52;;;;;;;67.88;26.42;;;;;;;-1.15;63.33;99213.81;5183975;28;20053;-64
2021/12/23 05:37:43;;;;;;;68.03;28.08;;;;;;;-1.18;62.54;99193.97;5187937;28;20064;-64
2021/12/23 05:40:34;;;;;;;65.03;26.38;;;;;;;-1.02;61.43;99183.75;5183377;28;20057;-65
2021/12/23 05:43:24;;;;;;;67.00;26.65;;;;;;;-0.99;62.14;99197.47;5184632;28;20144;-64
2021/12/23 05:46:14;;;;;;;70.47;27.63;;;;;;;-1.07;62.91;99183.94;5183014;28;20058;-66
2021/12/23 05:49:05;;;;;;;62.72;25.98;;;;;;;-1.14;62.33;99174.69;5168896;28;20054;-65
2021/12/23 05:51:56;;;;;;;74.80;29.33;;;;;;;-1.05;63.07;99176.91;5163737;28;20127;-64
2021/12/23 05:54:46;;;;;;;68.10;26.40;;;;;;;-1.03;62.71;99175.06;5180014;28;20420;-64
2021/12/23 05:57:37;;;;;;;75.18;28.25;;;;;;;-0.95;62.78;99165.19;5177220;28;20053;-64
2021/12/23 06:00:29;;;;;;;68.25;27.48;;;;;;;-1.10;62.90;99145.03;5183510;28;20068;-70
2021/12/23 06:03:20;;;;;;;73.88;27.67;;;;;;;-1.09;62.84;99174.50;5180787;28;20179;-64
2021/12/23 06:06:09;;;;;;;68.07;26.80;;;;;;;-1.25;63.00;99135.31;5167289;28;20065;-64
2021/12/23 06:09:02;;;;;;;69.85;28.23;;;;;;;-1.09;63.02;99172.75;5178384;28;20515;-66
2021/12/23 06:11:51;;;;;;;68.32;27.42;;;;;;;-1.15;63.55;99166.97;5168630;28;20674;-66
2021/12/23 06:14:41;;;;;;;68.25;27.98;;;;;;;-1.03;62.02;99154.25;5183075;28;20065;-66
2021/12/23 06:17:32;;;;;;;69.20;27.90;;;;;;;-1.82;64.41;99123.84;5154079;28;20052;-65
2021/12/23 06:20:22;;;;;;;69.15;26.80;;;;;;;-1.69;64.87;99146.69;5181768;28;20057;-67
2021/12/23 06:23:12;;;;;;;73.88;27.77;;;;;;;-1.88;65.15;99145.75;5183305;28;20054;-65
2021/12/23 06:26:02;;;;;;;70.93;28.38;;;;;;;-2.33;65.87;99127.63;5179782;28;20062;-64
2021/12/23 06:28:52;;;;;;;77.07;29.10;;;;;;;-2.31;66.42;99155.22;5182839;28;20048;-63
2021/12/23 06:31:42;;;;;;;75.10;28.42;;;;;;;-2.06;65.98;99162.91;5179932;28;20042;-65
2021/12/23 06:34:32;;;;;;;68.13;26.75;;;;;;;-1.67;63.92;99162.19;5181376;28;20052;-64
2021/12/23 06:37:22;;;;;;;84.57;31.83;;;;;;;-1.36;63.91;99171.31;5181622;28;20416;-63
2021/12/23 06:40:13;;;;;;;78.53;28.58;;;;;;;-1.31;62.90;99161.56;5179585;28;20180;-66
2021/12/23 06:43:04;;;;;;;68.18;26.88;;;;;;;-1.15;63.41;99172.19;5182698;28;20417;-63
2021/12/23 06:45:54;;;;;;;75.55;26.98;;;;;;;-1.15;62.58;99167.81;5165356;28;20061;-66
2021/12/23 06:48:44;;;;;;;68.32;27.05;;;;;;;-1.10;63.21;99173.66;5167940;28;20135;-66
2021/12/23 06:51:35;;;;;;;68.80;27.00;;;;;;;-1.32;63.53;99168.53;5185755;28;20048;-64
2021/12/23 06:54:25;;;;;;;71.40;28.35;;;;;;;-1.39;63.17;99164.50;5154608;28;20110;-66
2021/12/23 06:57:15;;;;;;;69.40;27.70;;;;;;;-1.49;63.63;99131.97;5179713;28;20672;-64
2021/12/23 07:00:08;;;;;;;69.70;26.77;;;;;;;-1.36;62.89;99142.72;5181854;28;20046;-65
2021/12/23 07:02:59;;;;;;;74.40;27.05;;;;;;;-1.44;62.92;99143.03;5172719;28;20163;-64
2021/12/23 07:05:56;;;;;;;72.18;26.38;;;;;;;-1.25;62.41;99150.91;5165983;28;20136;-68
2021/12/23 07:08:46;;;;;;;69.15;26.38;;;;;;;-1.45;63.31;99156.97;5182740;28;20052;-64
2021/12/23 07:11:36;;;;;;;75.85;27.42;;;;;;;-1.42;63.40;99149.88;5182211;28;20107;-65
2021/12/23 07:14:26;;;;;;;72.35;27.05;;;;;;;-1.32;63.28;99146.88;5183266;28;20127;-65
2021/12/23 07:17:17;;;;;;;73.05;27.83;;;;;;;-1.30;62.89;99150.25;5180663;28;20141;-64
2021/12/23 07:20:08;;;;;;;68.82;26.38;;;;;;;-1.22;62.80;99149.03;5182497;28;20184;-65
2021/12/23 07:22:58;;;;;;;73.18;25.63;;;;;;;-1.22;62.92;99141.22;5176413;28;20065;-65
2021/12/23 07:25:51;;;;;;;62.33;25.60;;;;;;;-1.64;64.63;99143.03;5180170;28;20135;-65
2021/12/23 07:28:42;;;;;;;69.28;27.10;;;;;;;-2.18;65.12;99127.88;5176753;28;20586;-64
2021/12/23 07:31:32;;;;;;;69.45;26.90;;;;;;;-1.86;65.39;99138.72;5180514;28;20124;-65
2021/12/23 07:34:22;;;;;;;70.53;26.83;;;;;;;-1.39;64.08;99153.25;5180544;28;20045;-64
2021/12/23 07:37:13;;;;;;;66.90;27.15;;;;;;;-1.13;62.81;99163.38;5185254;28;20060;-65
2021/12/23 07:40:05;;;;;;;76.65;29.63;;;;;;;-0.96;62.36;99150.50;5179377;28;20436;-67
2021/12/23 07:42:57;;;;;;;70.68;27.40;;;;;;;-1.15;63.24;99140.97;5161321;28;20188;-65
2021/12/23 07:45:47;;;;;;;67.28;26.83;;;;;;;-1.29;63.57;99137.19;5179217;28;20056;-68
2021/12/23 07:48:37;;;;;;;71.13;25.77;;;;;;;-1.33;63.30;99133.00;5184412;28;20082;-68
2021/12/23 07:51:27;;;;;;;78.32;27.65;;;;;;;-1.27;63.08;99129.31;5185410;28;20057;-70
2021/12/23 07:54:17;;;;;;;75.07;26.60;;;;;;;-0.78;62.58;99127.97;5182664;28;20512;-66
2021/12/23 07:57:08;;;;;;;92.97;28.23;;;;;;;-0.91;62.89;99139.03;5184939;28;20046;-64
2021/12/23 07:59:59;;;;;;;69.30;27.15;;;;;;;-0.66;61.68;99110.97;5187549;28;20042;-67
2021/12/23 08:02:49;;;;;;;71.75;27.20;;;;;;;-0.41;60.59;99117.63;5179165;28;20077;-66
2021/12/23 08:05:41;;;;;;;69.50;26.23;;;;;;;-0.63;61.41;99103.03;5181806;28;20537;-64
2021/12/23 08:08:32;;;;;;;70.00;26.38;;;;;;;-0.57;61.24;99118.34;5181370;28;20075;-64
2021/12/23 08:11:22;;;;;;;72.68;26.38;;;;;;;-0.84;62.76;99125.66;5181829;28;20053;-67
2021/12/23 08:14:12;;;;;;;71.50;26.52;;;;;;;-0.40;61.00;99111.50;5180490;28;20064;-64
2021/12/23 08:17:02;;;;;;;66.28;26.13;;;;;;;-0.32;61.64;99109.38;5182834;28;20061;-66
2021/12/23 08:19:52;;;;;;;67.78;26.63;;;;;;;-0.08;60.60;99107.38;5182652;28;20179;-66
2021/12/23 08:22:43;;;;;;;70.47;26.15;;;;;;;-0.36;61.50;99111.28;5175337;28;20050;-67
2021/12/23 08:25:33;;;;;;;67.97;25.70;;;;;;;-0.10;60.53;99091.81;5176222;28;20156;-67
2021/12/23 08:28:24;;;;;;;71.70;27.27;;;;;;;-0.29;60.95;99091.84;5172786;28;20054;-65
2021/12/23 08:31:14;;;;;;;64.90;25.77;;;;;;;-0.59;61.68;99073.31;5177695;28;20092;-67
2021/12/23 08:34:04;;;;;;;69.68;26.77;;;;;;;-0.36;62.35;99106.09;5176115;28;20108;-66
2021/12/23 08:36:54;;;;;;;69.20;26.73;;;;;;;-0.29;61.98;99101.44;5178110;28;20228;-66
2021/12/23 08:39:47;;;;;;;75.05;30.20;;;;;;;-0.08;62.04;99096.94;5160108;28;20100;-67
2021/12/23 08:42:37;;;;;;;66.32;25.80;;;;;;;-0.19;60.92;99087.03;5179207;28;20048;-66
2021/12/23 08:45:29;;;;;;;71.15;28.45;;;;;;;-0.18;63.03;99093.09;5185730;28;20107;-65
2021/12/23 08:48:19;;;;;;;69.68;28.48;;;;;;;-0.35;62.55;99099.94;5177076;28;20133;-65
2021/12/23 08:51:09;;;;;;;94.18;34.95;;;;;;;-0.14;62.78;99097.22;5182026;28;20170;-66
2021/12/23 08:53:59;;;;;;;87.38;32.63;;;;;;;-0.09;62.27;99084.84;5165731;28;20033;-66
2021/12/23 08:56:54;;;;;;;76.32;30.42;;;;;;;-0.02;61.87;99068.81;5181539;28;20535;-63
2021/12/23 08:59:46;;;;;;;67.45;27.17;;;;;;;0.17;62.69;99060.09;5181581;28;20112;-65
2021/12/23 09:02:36;;;;;;;66.25;26.95;;;;;;;0.37;61.37;99057.31;5180551;28;20120;-66
2021/12/23 09:05:27;;;;;;;65.57;25.63;;;;;;;0.55;60.92;99065.94;5170213;28;20057;-65
2021/12/23 09:08:17;;;;;;;64.50;25.52;;;;;;;0.43;59.38;99085.69;5177506;28;20053;-65
2021/12/23 09:11:08;;;;;;;70.82;25.75;;;;;;;0.55;60.52;99089.41;5173993;28;20267;-65
2021/12/23 09:13:58;;;;;;;68.47;26.35;;;;;;;0.59;60.74;99092.72;5179102;28;20704;-66
2021/12/23 09:16:49;;;;;;;62.03;26.27;;;;;;;0.71;59.71;99094.69;5174895;28;20050;-63
2021/12/23 09:19:39;;;;;;;63.95;26.95;;;;;;;0.73;60.78;99078.94;5179203;28;20054;-66
2021/12/23 09:22:30;;;;;;;64.07;26.73;;;;;;;0.83;60.03;99051.44;5176832;28;20222;-64
2021/12/23 09:25:26;;;;;;;63.85;25.50;;;;;;;1.11;59.54;99076.94;5184426;28;20048;-66
2021/12/23 09:28:40;;;;;;;68.47;26.27;;;;;;;1.14;58.89;99074.16;5178813;28;20165;-66
2021/12/23 09:34:39;;;;;;;63.17;26.30;;;;;;;1.20;59.25;99080.84;5176187;28;20649;-64
2021/12/23 09:37:29;;;;;;;61.60;25.80;;;;;;;1.30;59.68;99076.78;5184759;28;20132;-66
2021/12/23 09:40:23;;;;;;;69.40;28.85;;;;;;;1.23;60.19;99075.44;5178854;28;20070;-65
2021/12/23 09:43:19;;;;;;;60.05;25.15;;;;;;;1.56;58.41;99070.13;5178798;28;20144;-64
2021/12/23 09:46:13;;;;;;;62.35;26.30;;;;;;;1.37;58.38;99063.31;5176228;28;20562;-66
2021/12/23 09:49:05;;;;;;;63.42;24.88;;;;;;;1.23;58.73;99070.22;5177362;28;20045;-66
2021/12/23 09:51:57;;;;;;;59.17;25.25;;;;;;;1.34;59.43;99060.03;5186606;28;20068;-65
2021/12/23 09:54:48;;;;;;;56.95;23.77;;;;;;;1.64;58.26;99067.94;5181551;28;20088;-66
2021/12/23 09:57:39;;;;;;;63.60;25.38;;;;;;;1.67;59.08;99049.47;5187372;28;20510;-64
2021/12/23 10:00:32;;;;;;;58.88;24.80;;;;;;;1.39;59.68;99042.31;5184174;28;20123;-65
2021/12/23 10:03:24;;;;;;;64.15;26.48;;;;;;;1.68;59.99;99043.28;5177246;28;20180;-65
2021/12/23 10:06:14;;;;;;;58.65;25.55;;;;;;;1.69;59.44;99041.50;5182532;28;20065;-65
2021/12/23 10:09:04;;;;;;;61.75;24.88;;;;;;;1.94;59.82;99040.97;5184642;28;20096;-65
2021/12/23 10:31:38;;;;;;;59.13;25.75;;;;;;;2.53;59.41;99018.28;5119450;28;20575;-71
2021/12/23 10:37:24;;;;;;;57.55;24.88;;;;;;;2.63;58.75;99018.56;5126438;28;20563;-71
2021/12/23 10:40:14;;;;;;;58.88;25.65;;;;;;;2.66;59.15;99011.38;5129566;28;20058;-69
2021/12/23 10:43:08;;;;;;;61.25;26.88;;;;;;;2.67;58.58;99004.34;5098313;28;20425;-67
2021/12/23 10:46:04;;;;;;;62.28;25.05;;;;;;;2.77;58.06;99003.69;5113220;28;20054;-69
2021/12/23 10:49:31;;;;;;;59.72;25.75;;;;;;;2.85;58.00;98989.28;5112211;28;20066;-68
2021/12/23 10:52:27;;;;;;;58.80;24.83;;;;;;;2.95;57.69;98962.44;5115727;28;20051;-68
2021/12/23 10:58:14;;;;;;;56.92;23.58;;;;;;;2.99;57.86;98960.47;5125565;28;20639;-69
2021/12/23 11:01:04;;;;;;;62.03;24.60;;;;;;;3.33;57.89;98971.41;5120805;28;20664;-68
2021/12/23 11:04:03;;;;;;;;;;;;;;;3.13;57.52;98965.66;5127762;28;20050;-68
2021/12/23 11:07:17;;;;;;;55.80;23.73;;;;;;;3.04;58.69;98948.75;5118342;28;20352;-68
2021/12/23 11:10:18;;;;;;;55.92;24.67;;;;;;;3.37;57.49;98962.41;5119700;28;20050;-68
2021/12/23 11:41:51;;;;;;;44.23;18.47;;;;;;;3.88;58.12;98878.63;5106781;28;20161;-68
2021/12/23 11:44:42;;;;;;;56.05;24.83;;;;;;;3.87;57.85;98892.66;5122078;28;20452;-70
2021/12/23 11:47:32;;;;;;;51.45;24.80;;;;;;;3.99;58.18;98897.91;5121583;28;20139;-67
2021/12/23 11:50:30;;;;;;;52.15;24.92;;;;;;;4.02;58.10;98891.63;5116602;28;20122;-72
2021/12/23 11:53:24;;;;;;;51.33;24.10;;;;;;;4.09;58.98;98889.44;5126122;28;20047;-67
2021/12/23 11:56:19;;;;;;;61.30;27.40;;;;;;;4.07;58.99;98881.66;5125495;28;20076;-68
2021/12/23 11:59:13;;;;;;;56.25;24.63;;;;;;;4.48;57.89;98872.69;5124590;28;20203;-68
2021/12/23 12:02:16;;;;;;;51.20;23.70;;;;;;;4.51;56.71;98853.25;5124228;28;20528;-68
2021/12/23 12:05:15;;;;;;;52.60;24.60;;;;;;;4.41;57.01;98861.78;5123790;28;20050;-73
2021/12/23 12:08:13;;;;;;;51.22;24.42;;;;;;;4.38;57.43;98848.03;5111787;28;20089;-69
2021/12/23 12:11:15;;;;;;;58.72;25.92;;;;;;;4.40;58.61;98852.25;5125892;28;20054;-68
2021/12/23 12:14:34;;;;;;;57.97;25.95;;;;;;;4.54;57.92;98850.44;5117934;28;20066;-68
2021/12/23 12:20:33;;;;;;;51.90;24.15;;;;;;;4.35;58.28;98820.22;5117339;28;20658;-68
2021/12/23 12:23:36;;;;;;;48.25;22.40;;;;;;;4.72;56.55;98834.16;5129184;28;20049;-69
2021/12/23 12:26:29;;;;;;;60.23;25.97;;;;;;;4.27;57.76;98783.16;5131885;28;20417;-69
2021/12/23 12:29:25;;;;;;;63.85;26.98;;;;;;;4.62;57.61;98838.41;5121820;28;20051;-68
2021/12/23 12:32:35;;;;;;;54.38;24.42;;;;;;;4.42;59.36;98836.38;5122704;28;20062;-69
2021/12/23 12:35:26;;;;;;;55.88;26.80;;;;;;;4.44;60.15;98837.94;5121307;28;20083;-69
2021/12/23 12:38:24;;;;;;;58.40;25.58;;;;;;;4.54;59.68;98834.66;5116616;28;20071;-69
2021/12/23 12:41:25;;;;;;;57.97;26.23;;;;;;;4.57;59.66;98832.66;5120597;28;20576;-68
2021/12/23 12:47:25;;;;;;;54.28;25.92;;;;;;;4.51;59.57;98825.22;5114233;28;20103;-69
2021/12/23 12:50:19;;;;;;;53.80;24.40;;;;;;;4.61;58.62;98812.28;5118930;28;20117;-68
2021/12/23 12:53:15;;;;;;;56.15;26.52;;;;;;;4.40;59.31;98794.50;5121009;28;20083;-68
2021/12/23 12:56:07;;;;;;;72.72;30.73;;;;;;;4.57;59.79;98818.66;5112318;28;20139;-70
2021/12/23 12:58:58;;;;;;;63.88;28.70;;;;;;;4.54;60.33;98818.91;5116953;28;20111;-70
2021/12/23 13:01:51;;;;;;;63.35;27.00;;;;;;;4.56;60.22;98809.13;5120071;28;20067;-68
2021/12/23 13:04:50;;;;;;;53.95;26.73;;;;;;;4.64;60.94;98802.38;5121810;28;20054;-68
2021/12/23 13:07:59;;;;;;;59.75;27.52;;;;;;;4.58;60.73;98810.69;5105092;29;20063;-69
2021/12/23 13:11:08;;;;;;;56.35;26.65;;;;;;;4.61;60.40;98809.63;5104136;29;20062;-68
2021/12/23 13:14:23;;;;;;;62.13;25.48;;;;;;;4.60;61.11;98787.81;5122474;28;20047;-68
2021/12/23 13:17:53;;;;;;;52.60;26.42;;;;;;;4.96;60.63;98780.78;5087788;29;20059;-68
2021/12/23 13:20:59;;;;;;;56.45;25.55;;;;;;;4.65;61.88;98777.78;5122106;28;20054;-68
2021/12/23 13:23:49;;;;;;;57.85;26.75;;;;;;;4.76;60.62;98784.03;5121168;28;20050;-70
2021/12/23 13:26:40;;;;;;;58.83;27.33;;;;;;;4.50;61.00;98786.75;5120617;28;20067;-67
2021/12/23 13:29:32;;;;;;;57.15;26.02;;;;;;;4.39;62.42;98763.09;5108808;29;20050;-70
2021/12/23 13:32:22;;;;;;;57.53;27.10;;;;;;;4.57;62.24;98777.53;5116469;28;20055;-69
2021/12/23 13:35:14;;;;;;;58.15;26.77;;;;;;;4.51;62.43;98775.34;5124603;28;20154;-69
2021/12/23 13:38:05;;;;;;;54.08;26.08;;;;;;;4.64;61.85;98778.75;5120762;28;20102;-69
2021/12/23 13:40:55;;;;;;;54.03;26.33;;;;;;;4.61;61.50;98765.00;5118538;28;20086;-68
2021/12/23 13:43:45;;;;;;;60.03;26.27;;;;;;;4.71;60.86;98776.50;5122284;28;20098;-70
2021/12/23 13:46:35;;;;;;;57.65;27.88;;;;;;;4.70;61.58;98775.69;5117426;28;20036;-69
2021/12/23 13:49:33;;;;;;;61.28;27.38;;;;;;;4.71;61.50;98779.13;5123716;28;20418;-69
2021/12/23 13:52:31;;;;;;;56.67;26.73;;;;;;;4.71;61.80;98777.34;5122757;28;20054;-67
2021/12/23 13:55:27;;;;;;;58.55;25.85;;;;;;;4.67;62.46;98778.53;5121233;28;20098;-68
2021/12/23 13:58:25;;;;;;;65.03;26.67;;;;;;;4.77;61.71;98783.06;5113927;28;20565;-68
2021/12/23 14:01:15;;;;;;;56.40;25.58;;;;;;;4.70;61.78;98766.94;5121819;28;20059;-70
2021/12/23 14:04:05;;;;;;;56.85;26.90;;;;;;;4.80;61.39;98767.09;5118471;28;20417;-68
2021/12/23 14:06:56;;;;;;;55.95;26.40;;;;;;;4.79;62.19;98755.75;5127585;28;20700;-68
2021/12/23 14:09:53;;;;;;;63.22;27.25;;;;;;;4.75;62.33;98749.06;5129160;28;20062;-70
2021/12/23 14:13:01;;;;;;;57.17;26.15;;;;;;;4.73;62.42;98756.19;5095849;28;20066;-68
2021/12/23 14:15:58;;;;;;;70.25;32.78;;;;;;;4.68;62.41;98751.31;5117622;28;20043;-67
2021/12/23 14:19:25;;;;;;;59.53;26.33;;;;;;;4.76;61.28;98750.72;5123473;28;20074;-66
2021/12/23 14:25:24;;;;;;;55.97;26.17;;;;;;;4.79;62.00;98744.41;5114928;28;20438;-66
2021/12/23 14:28:22;;;;;;;54.90;26.58;;;;;;;4.87;62.14;98747.31;5113668;28;20608;-66
2021/12/23 14:31:12;;;;;;;60.22;28.58;;;;;;;4.72;62.52;98755.38;5124603;28;20057;-67